createdAt,value
2015-12-06T18:37:28.176Z,101710
2015-12-06T18:37:40.754Z,101706
2015-12-06T18:37:53.129Z,101700
2015-12-06T18:38:05.598Z,101697
2015-12-06T18:38:17.957Z,101716
2015-12-06T18:38:30.506Z,101703
2015-12-06T18:38:43.053Z,101712
2015-12-06T18:38:55.397Z,101712
2015-12-06T18:39:07.866Z,101715
2015-12-06T18:39:20.475Z,101709
2015-12-06T18:39:32.837Z,101706
2015-12-06T18:39:45.259Z,101715
2015-12-06T18:39:57.869Z,101712
2015-12-06T18:40:10.275Z,101718
2015-12-06T18:40:22.665Z,101715
2015-12-06T18:40:35.278Z,101706
2015-12-06T18:40:47.825Z,101721
2015-12-06T18:41:00.450Z,101721
2015-12-06T18:41:12.840Z,101727
2015-12-06T18:41:25.309Z,101705
2015-12-06T18:41:37.905Z,101714
2015-12-06T18:41:50.295Z,101708
2015-12-06T18:42:03.717Z,101711
2015-12-06T18:42:16.311Z,101708
2015-12-06T18:42:28.783Z,101718
2015-12-06T18:42:41.111Z,101721
2015-12-06T18:42:53.705Z,101721
2015-12-06T18:43:06.189Z,101708
2015-12-06T18:43:18.689Z,101711
2015-12-06T18:43:31.098Z,101705
2015-12-06T18:43:43.895Z,101711
2015-12-06T18:43:56.489Z,101714
2015-12-06T18:44:08.958Z,101718
2015-12-06T18:44:21.317Z,101727
2015-12-06T18:44:33.944Z,101714
2015-12-06T18:44:46.491Z,101708
2015-12-06T18:44:58.913Z,101708
2015-12-06T18:45:11.491Z,101717
2015-12-06T18:45:24.085Z,101721
2015-12-06T18:45:36.463Z,101708
2015-12-06T18:45:48.994Z,101721
2015-12-06T18:46:01.619Z,101724
2015-12-06T18:46:13.994Z,101717
2015-12-06T18:46:26.431Z,101721
2015-12-06T18:46:39.059Z,101730
2015-12-06T18:46:51.466Z,101711
2015-12-06T18:47:03.934Z,101730
2015-12-06T18:47:16.544Z,101730
2015-12-06T18:47:29.016Z,101724
2015-12-06T18:47:41.391Z,101727
2015-12-06T18:47:54.031Z,101721
2015-12-06T18:48:06.578Z,101720
2015-12-06T18:48:18.906Z,101730
2015-12-06T18:48:31.455Z,101705
2015-12-06T18:48:43.877Z,101711
2015-12-06T18:48:56.502Z,101723
2015-12-06T18:49:08.971Z,101720
2015-12-06T18:49:21.346Z,101720
2015-12-06T18:49:33.958Z,101723
2015-12-06T18:49:46.474Z,101739
2015-12-06T18:49:58.849Z,101723
2015-12-06T18:50:11.427Z,101717
2015-12-06T18:50:24.005Z,101711
2015-12-06T18:50:36.352Z,101714
2015-12-06T18:50:48.836Z,101732
2015-12-06T18:51:01.492Z,101723
2015-12-06T18:51:13.914Z,101717
2015-12-06T18:51:26.414Z,101711
2015-12-06T18:51:38.777Z,101726
2015-12-06T18:51:51.339Z,101720
2015-12-06T18:52:03.886Z,101711
2015-12-06T18:52:16.214Z,101733
2015-12-06T18:52:28.716Z,101729
2015-12-06T18:52:41.341Z,101729
2015-12-06T18:52:53.700Z,101714
2015-12-06T18:53:06.185Z,101714
2015-12-06T18:53:18.841Z,101720
2015-12-06T18:53:31.296Z,101729
2015-12-06T18:53:43.718Z,101736
2015-12-06T18:53:56.202Z,101717
2015-12-06T18:54:08.718Z,101711
2015-12-06T18:54:21.343Z,101733
2015-12-06T18:54:34.285Z,101704
2015-12-06T18:54:46.753Z,101723
2015-12-06T18:54:59.347Z,101723
2015-12-06T18:55:11.738Z,101736
2015-12-06T18:55:24.144Z,101732
2015-12-06T18:55:36.755Z,101717
2015-12-06T18:55:49.162Z,101720
2015-12-06T18:56:01.552Z,101720
2015-12-06T18:56:14.193Z,101708
2015-12-06T18:56:26.693Z,101717
2015-12-06T18:56:39.211Z,101714
2015-12-06T18:56:51.821Z,101723
2015-12-06T18:57:04.227Z,101714
2015-12-06T18:57:16.852Z,101720
2015-12-06T18:57:29.323Z,101717
2015-12-06T18:57:41.698Z,101707
2015-12-06T18:57:54.338Z,101723
2015-12-06T18:58:06.854Z,101717
2015-12-06T18:58:19.229Z,101720
2015-12-06T18:58:31.857Z,101717
2015-12-06T18:58:44.498Z,101717
2015-12-06T18:58:56.841Z,101711
2015-12-06T18:59:09.341Z,101726
2015-12-06T18:59:21.763Z,101708
2015-12-06T18:59:34.360Z,101729
2015-12-06T18:59:46.891Z,101739
2015-12-06T18:59:59.266Z,101714
2015-12-06T19:00:11.829Z,101720
2015-12-06T19:00:24.376Z,101729
2015-12-06T19:00:36.754Z,101732
2015-12-06T19:00:49.238Z,101723
2015-12-06T19:01:01.863Z,101720
2015-12-06T19:01:14.222Z,101723
2015-12-06T19:01:26.691Z,101714
2015-12-06T19:01:39.288Z,101701
2015-12-06T19:01:51.694Z,101726
2015-12-06T19:02:04.272Z,101714
2015-12-06T19:02:16.647Z,101723
2015-12-06T19:02:30.024Z,101720
2015-12-06T19:02:42.649Z,101720
2015-12-06T19:02:55.056Z,101720
2015-12-06T19:03:07.493Z,101707
2015-12-06T19:03:20.087Z,101726
2015-12-06T19:03:32.464Z,101720
2015-12-06T19:03:44.870Z,101717
2015-12-06T19:03:57.464Z,101717
2015-12-06T19:04:09.901Z,101726
2015-12-06T19:04:22.261Z,101717
2015-12-06T19:04:34.811Z,101714
2015-12-06T19:04:47.264Z,101707
2015-12-06T19:04:59.842Z,101704
2015-12-06T19:05:12.232Z,101714
2015-12-06T19:05:24.639Z,101710
2015-12-06T19:05:37.204Z,101698
2015-12-06T19:05:49.626Z,101698
2015-12-06T19:06:02.001Z,101710
2015-12-06T19:06:14.626Z,101726
2015-12-06T19:06:27.126Z,101723
2015-12-06T19:06:39.488Z,101729
2015-12-06T19:06:52.035Z,101714
2015-12-06T19:07:04.582Z,101714
2015-12-06T19:07:16.957Z,101707
2015-12-06T19:07:29.475Z,101714
2015-12-06T19:07:42.147Z,101717
2015-12-06T19:07:54.522Z,101720
2015-12-06T19:08:07.006Z,101726
2015-12-06T19:08:19.600Z,101713
2015-12-06T19:08:32.103Z,101716
2015-12-06T19:08:44.493Z,101723
2015-12-06T19:08:57.087Z,101723
2015-12-06T19:09:09.540Z,101720
2015-12-06T19:09:23.681Z,101713
2015-12-06T19:09:36.543Z,101713
2015-12-06T19:09:49.028Z,101726
2015-12-06T19:10:01.512Z,101723
2015-12-06T19:10:13.918Z,101713
2015-12-06T19:10:26.309Z,101735
2015-12-06T19:10:38.889Z,101726
2015-12-06T19:10:51.342Z,101729
2015-12-06T19:11:03.686Z,101726
2015-12-06T19:11:16.311Z,101723
2015-12-06T19:11:28.842Z,101720
2015-12-06T19:11:41.190Z,101732
2015-12-06T19:11:53.768Z,101729
2015-12-06T19:12:07.127Z,101723
2015-12-06T19:12:19.502Z,101720
2015-12-06T19:12:32.067Z,101720
2015-12-06T19:12:44.442Z,101720
2015-12-06T19:12:57.051Z,101714
2015-12-06T19:13:09.520Z,101710
2015-12-06T19:13:21.879Z,101720
2015-12-06T19:13:34.414Z,101710
2015-12-06T19:13:46.961Z,101723
2015-12-06T19:13:59.289Z,101714
2015-12-06T19:14:11.789Z,101723
2015-12-06T19:14:24.398Z,101720
2015-12-06T19:14:36.759Z,101717
2015-12-06T19:14:49.197Z,101710
2015-12-06T19:15:01.791Z,101720
2015-12-06T19:15:14.197Z,101704
2015-12-06T19:15:26.744Z,101710
2015-12-06T19:15:39.106Z,101738
2015-12-06T19:15:51.622Z,101714
2015-12-06T19:16:04.231Z,101717
2015-12-06T19:16:16.591Z,101720
2015-12-06T19:16:29.059Z,101710
2015-12-06T19:16:41.687Z,101723
2015-12-06T19:16:54.156Z,101738
2015-12-06T19:17:06.594Z,101717
2015-12-06T19:17:19.203Z,101729
2015-12-06T19:17:31.658Z,101732
2015-12-06T19:17:43.986Z,101732
2015-12-06T19:17:56.533Z,101729
2015-12-06T19:18:09.002Z,101729
2015-12-06T19:18:21.596Z,101739
2015-12-06T19:18:33.989Z,101720
2015-12-06T19:18:46.364Z,101732
2015-12-06T19:18:58.974Z,101735
2015-12-06T19:19:11.442Z,101729
2015-12-06T19:19:23.786Z,101739
2015-12-06T19:19:36.398Z,101735
2015-12-06T19:19:48.977Z,101732
2015-12-06T19:20:01.430Z,101729
2015-12-06T19:20:14.289Z,101726
2015-12-06T19:20:26.820Z,101729
2015-12-06T19:20:39.291Z,101726
2015-12-06T19:20:51.760Z,101726
2015-12-06T19:21:04.150Z,101739
2015-12-06T19:21:16.775Z,101726
2015-12-06T19:21:29.307Z,101732
2015-12-06T19:21:41.653Z,101732
2015-12-06T19:21:54.247Z,101739
2015-12-06T19:22:06.794Z,101736
2015-12-06T19:22:19.169Z,101729
2015-12-06T19:22:31.719Z,101729
2015-12-06T19:22:44.328Z,101729
2015-12-06T19:22:56.750Z,101732
2015-12-06T19:23:09.250Z,101732
2015-12-06T19:23:21.735Z,101726
2015-12-06T19:23:34.425Z,101729
2015-12-06T19:23:47.034Z,101735
2015-12-06T19:23:59.409Z,101739
2015-12-06T19:24:11.956Z,101735
2015-12-06T19:24:24.597Z,101729
2015-12-06T19:24:36.943Z,101735
2015-12-06T19:24:49.443Z,101735
2015-12-06T19:25:02.099Z,101732
2015-12-06T19:25:14.599Z,101735
2015-12-06T19:25:27.255Z,101726
2015-12-06T19:25:39.899Z,101732
2015-12-06T19:25:52.368Z,101726
2015-12-06T19:26:04.977Z,101739
2015-12-06T19:26:18.383Z,101726
2015-12-06T19:26:30.852Z,101736
2015-12-06T19:26:43.464Z,101729
2015-12-06T19:26:55.917Z,101720
2015-12-06T19:27:08.355Z,101729
2015-12-06T19:27:21.011Z,101732
2015-12-06T19:27:33.482Z,101745
2015-12-06T19:27:45.873Z,101729
2015-12-06T19:27:58.482Z,101732
2015-12-06T19:28:11.013Z,101723
2015-12-06T19:28:23.388Z,101729
2015-12-06T19:28:36.001Z,101732
2015-12-06T19:28:48.579Z,101732
2015-12-06T19:29:03.641Z,101726
2015-12-06T19:29:17.141Z,101723
2015-12-06T19:29:29.766Z,101726
2015-12-06T19:29:42.144Z,101742
2015-12-06T19:29:56.113Z,101729
2015-12-06T19:30:08.879Z,101726
2015-12-06T19:30:21.316Z,101745
2015-12-06T19:30:33.787Z,101723
2015-12-06T19:30:46.427Z,101735
2015-12-06T19:31:06.099Z,101723
2015-12-06T19:31:18.474Z,101732
2015-12-06T19:31:31.037Z,101736
2015-12-06T19:31:43.493Z,101742
2015-12-06T19:31:56.274Z,101729
2015-12-06T19:32:08.696Z,101736
2015-12-06T19:32:22.087Z,101748
2015-12-06T19:32:34.901Z,101732
2015-12-06T19:32:47.511Z,101739
2015-12-06T19:33:00.026Z,101729
2015-12-06T19:33:12.729Z,101732
2015-12-06T19:33:25.995Z,101736
2015-12-06T19:33:38.374Z,101739
2015-12-06T19:33:50.952Z,101754
2015-12-06T19:34:03.530Z,101739
2015-12-06T19:34:16.015Z,101739
2015-12-06T19:34:28.546Z,101733
2015-12-06T19:34:50.063Z,101739
2015-12-06T19:35:02.970Z,101739
2015-12-06T19:35:17.517Z,101748
2015-12-06T19:35:29.876Z,101754
2015-12-06T19:35:42.488Z,101742
2015-12-06T19:35:55.066Z,101739
2015-12-06T19:36:11.066Z,101748
2015-12-06T19:36:23.535Z,101745
2015-12-06T19:36:36.129Z,101726
2015-12-06T19:36:48.460Z,101736
2015-12-06T19:37:00.882Z,101733
2015-12-06T19:37:13.319Z,101739
2015-12-06T19:37:25.866Z,101742
2015-12-06T19:37:38.368Z,101742
2015-12-06T19:37:50.728Z,101736
2015-12-06T19:38:03.196Z,101745
2015-12-06T19:38:15.821Z,101745
2015-12-06T19:38:28.228Z,101751
2015-12-06T19:38:41.090Z,101736
2015-12-06T19:38:53.793Z,101745
2015-12-06T19:39:06.293Z,101770
2015-12-06T19:39:18.731Z,101757
2015-12-06T19:39:32.778Z,101739
2015-12-06T19:39:45.296Z,101757
2015-12-06T19:39:57.859Z,101735
2015-12-06T19:40:10.218Z,101742
2015-12-06T19:40:22.687Z,101738
2015-12-06T19:40:36.218Z,101735
2015-12-06T19:40:51.408Z,101735
2015-12-06T19:41:03.861Z,101738
2015-12-06T19:41:16.486Z,101732
2015-12-06T19:41:28.939Z,101738
